Time;durP1;ratioP1;P1;durP2;ratioP2;P2;SDS_P1;SDS_P2;PMS_P1;PMS_P2;Temp;Humidity;BMP_temperature;BMP_pressure;BME280_temperature;BME280_humidity;BME280_pressure;Samples;Min_cycle;Max_cycle;Signal;HPM_P1;HPM_P2
2023/12/03 00:00:11;;;;;;;32.97;18.65;;;;;;;;;;5059483;28;20081;-64
2023/12/03 00:02:38;;;;;;;41.40;21.25;;;;;;;;;;5060710;28;20028;-64
2023/12/03 00:05:05;;;;;;;35.38;20.70;;;;;;;;;;5066524;28;20444;-64
2023/12/03 00:07:32;;;;;;;33.67;19.90;;;;;;;;;;5061350;28;20040;-64
2023/12/03 00:09:58;;;;;;;33.40;20.02;;;;;;;;;;5054789;28;20032;-64
2023/12/03 00:12:25;;;;;;;35.63;20.48;;;;;;;;;;5062526;28;20033;-64
2023/12/03 00:14:51;;;;;;;32.10;19.83;;;;;;;;;;5059248;28;20446;-64
2023/12/03 00:17:17;;;;;;;33.92;22.15;;;;;;;;;;5065079;28;20028;-64
2023/12/03 00:19:43;;;;;;;39.70;21.10;;;;;;;;;;5059296;28;20370;-64
2023/12/03 00:22:10;;;;;;;40.60;22.58;;;;;;;;;;5058944;28;20036;-64
2023/12/03 00:24:36;;;;;;;40.50;23.65;;;;;;;;;;5062903;28;20089;-64
2023/12/03 00:27:02;;;;;;;35.03;21.67;;;;;;;;;;5061925;28;20392;-64
2023/12/03 00:29:29;;;;;;;36.90;21.52;;;;;;;;;;5061749;28;20028;-64
2023/12/03 00:31:55;;;;;;;39.03;21.40;;;;;;;;;;5056479;28;20056;-64
2023/12/03 00:34:21;;;;;;;50.30;23.67;;;;;;;;;;5064150;28;20322;-65
2023/12/03 00:36:47;;;;;;;41.53;23.60;;;;;;;;;;5059217;28;20031;-64
2023/12/03 00:39:14;;;;;;;48.38;22.77;;;;;;;;;;5063226;28;20515;-64
2023/12/03 00:41:40;;;;;;;37.30;22.52;;;;;;;;;;5061443;28;20434;-64
2023/12/03 00:44:06;;;;;;;50.47;24.65;;;;;;;;;;5059790;28;20102;-64
2023/12/03 00:46:33;;;;;;;44.60;23.27;;;;;;;;;;5060790;28;20118;-63
2023/12/03 00:48:59;;;;;;;44.50;23.20;;;;;;;;;;5062716;28;20024;-63
2023/12/03 00:51:25;;;;;;;40.90;20.92;;;;;;;;;;5058081;28;20388;-63
2023/12/03 00:53:51;;;;;;;33.90;18.95;;;;;;;;;;5070453;28;20060;-64
2023/12/03 00:56:17;;;;;;;45.85;20.67;;;;;;;;;;5060386;28;20021;-63
2023/12/03 00:58:44;;;;;;;49.30;22.65;;;;;;;;;;5066103;28;20120;-64
2023/12/03 01:01:10;;;;;;;44.95;20.23;;;;;;;;;;5061278;28;20024;-63
2023/12/03 01:03:37;;;;;;;33.97;18.13;;;;;;;;;;5055275;28;20025;-63
2023/12/03 01:06:03;;;;;;;37.97;20.27;;;;;;;;;;5058049;28;20371;-63
2023/12/03 01:08:29;;;;;;;37.55;19.42;;;;;;;;;;5057189;28;20021;-63
2023/12/03 01:10:56;;;;;;;34.03;16.73;;;;;;;;;;5061057;28;20471;-63
2023/12/03 01:13:22;;;;;;;29.42;18.10;;;;;;;;;;5056125;28;20295;-63
2023/12/03 01:15:49;;;;;;;29.48;16.17;;;;;;;;;;5056615;28;20267;-63
2023/12/03 01:18:16;;;;;;;34.65;17.88;;;;;;;;;;5053989;28;20063;-64
2023/12/03 01:20:42;;;;;;;32.05;18.45;;;;;;;;;;5065849;28;20037;-65
2023/12/03 01:23:08;;;;;;;31.95;18.38;;;;;;;;;;5057575;28;20466;-64
2023/12/03 01:25:34;;;;;;;37.00;18.23;;;;;;;;;;5063044;28;20111;-64
2023/12/03 01:28:00;;;;;;;31.35;18.23;;;;;;;;;;5055896;28;20477;-63
2023/12/03 01:30:26;;;;;;;34.65;20.42;;;;;;;;;;5067368;28;20057;-63
2023/12/03 01:32:52;;;;;;;36.10;18.52;;;;;;;;;;5057167;28;20036;-63
2023/12/03 01:35:19;;;;;;;37.03;16.55;;;;;;;;;;5062340;28;20079;-63
2023/12/03 01:37:45;;;;;;;36.75;16.65;;;;;;;;;;5058366;28;20046;-64
2023/12/03 01:40:11;;;;;;;32.47;16.73;;;;;;;;;;5055322;28;20016;-63
2023/12/03 01:42:38;;;;;;;23.33;15.00;;;;;;;;;;5063766;28;20024;-64
2023/12/03 01:45:05;;;;;;;39.17;16.92;;;;;;;;;;5068633;28;20052;-64
2023/12/03 01:47:31;;;;;;;32.92;15.02;;;;;;;;;;5062862;28;20542;-63
2023/12/03 01:50:02;;;;;;;34.90;15.93;;;;;;;;;;5059583;28;20036;-64
2023/12/03 01:52:28;;;;;;;35.08;15.27;;;;;;;;;;5062433;28;20082;-63
2023/12/03 01:54:55;;;;;;;30.58;17.08;;;;;;;;;;5061276;28;20024;-64
2023/12/03 01:57:23;;;;;;;27.83;14.40;;;;;;;;;;5057231;28;20025;-63
2023/12/03 01:59:49;;;;;;;40.15;15.07;;;;;;;;;;5054200;28;20044;-63
2023/12/03 02:02:15;;;;;;;31.13;16.27;;;;;;;;;;5063613;28;20051;-63
2023/12/03 02:04:41;;;;;;;42.10;15.63;;;;;;;;;;5057482;28;20060;-63
2023/12/03 02:07:07;;;;;;;35.85;18.10;;;;;;;;;;5064415;28;20493;-67
2023/12/03 02:09:33;;;;;;;35.30;18.60;;;;;;;;;;5052749;28;20476;-63
2023/12/03 02:11:59;;;;;;;36.38;17.88;;;;;;;;;;5054069;28;20181;-64
2023/12/03 02:14:26;;;;;;;45.22;17.45;;;;;;;;;;5056162;28;20308;-64
2023/12/03 02:16:52;;;;;;;31.50;16.00;;;;;;;;;;5058383;28;20183;-63
2023/12/03 02:19:18;;;;;;;30.92;14.82;;;;;;;;;;5078223;28;20092;-63
2023/12/03 02:21:44;;;;;;;44.67;18.88;;;;;;;;;;5060260;28;20426;-63
2023/12/03 02:24:10;;;;;;;40.10;17.05;;;;;;;;;;5058156;28;20166;-63
2023/12/03 02:26:36;;;;;;;35.13;16.02;;;;;;;;;;5069034;28;20028;-64
2023/12/03 02:29:03;;;;;;;29.83;13.98;;;;;;;;;;5058429;28;20459;-63
2023/12/03 02:31:30;;;;;;;33.08;13.70;;;;;;;;;;5060167;28;20171;-64
2023/12/03 02:34:00;;;;;;;28.27;13.38;;;;;;;;;;5057449;28;20032;-63
2023/12/03 02:36:27;;;;;;;25.42;12.38;;;;;;;;;;5055192;28;20055;-63
2023/12/03 02:38:54;;;;;;;24.77;12.85;;;;;;;;;;5063112;28;20039;-63
2023/12/03 02:41:20;;;;;;;27.35;11.40;;;;;;;;;;5059419;28;20024;-64
2023/12/03 02:43:46;;;;;;;19.27;10.55;;;;;;;;;;5051489;28;20028;-63
2023/12/03 02:46:13;;;;;;;28.35;11.30;;;;;;;;;;5056159;28;20033;-64
2023/12/03 02:48:39;;;;;;;22.80;9.60;;;;;;;;;;5089685;28;20537;-64
2023/12/03 02:51:06;;;;;;;19.77;9.45;;;;;;;;;;5072866;28;20388;-64
2023/12/03 02:53:33;;;;;;;28.58;10.35;;;;;;;;;;5057034;28;20373;-64
2023/12/03 02:55:59;;;;;;;26.67;10.38;;;;;;;;;;5050206;28;20032;-63
2023/12/03 02:58:26;;;;;;;28.75;11.80;;;;;;;;;;5059854;28;20084;-64
2023/12/03 03:00:52;;;;;;;28.20;10.93;;;;;;;;;;5052649;28;20926;-63
2023/12/03 03:03:18;;;;;;;21.52;9.95;;;;;;;;;;5058323;28;20476;-64
2023/12/03 03:05:44;;;;;;;29.45;9.40;;;;;;;;;;5050232;28;20588;-63
2023/12/03 03:08:10;;;;;;;27.70;9.75;;;;;;;;;;5056796;28;20505;-63
2023/12/03 03:10:37;;;;;;;20.83;10.30;;;;;;;;;;5054233;28;20032;-63
2023/12/03 03:13:03;;;;;;;19.63;9.35;;;;;;;;;;5061495;28;20028;-64
2023/12/03 03:15:29;;;;;;;19.02;9.38;;;;;;;;;;5059925;28;20039;-64
2023/12/03 03:17:55;;;;;;;22.05;9.48;;;;;;;;;;5056285;28;20041;-64
2023/12/03 03:20:22;;;;;;;22.52;7.78;;;;;;;;;;5065581;28;20037;-63
2023/12/03 03:22:51;;;;;;;23.30;9.52;;;;;;;;;;5063223;28;20166;-64
2023/12/03 03:25:18;;;;;;;15.55;8.00;;;;;;;;;;5056152;28;20032;-63
2023/12/03 03:27:44;;;;;;;18.45;8.48;;;;;;;;;;5058388;28;20028;-63
2023/12/03 03:30:10;;;;;;;13.70;6.20;;;;;;;;;;5057365;28;20032;-63
2023/12/03 03:32:37;;;;;;;16.25;6.70;;;;;;;;;;5067459;28;20028;-63
2023/12/03 03:35:03;;;;;;;13.43;6.20;;;;;;;;;;5059101;28;20464;-64
2023/12/03 03:37:29;;;;;;;14.32;7.10;;;;;;;;;;5053904;28;20591;-63
2023/12/03 03:39:56;;;;;;;12.48;6.80;;;;;;;;;;5061422;28;20025;-63
2023/12/03 03:42:22;;;;;;;15.00;7.35;;;;;;;;;;5067877;28;20028;-63
2023/12/03 03:44:49;;;;;;;16.25;7.90;;;;;;;;;;5061225;28;20087;-63
2023/12/03 03:47:15;;;;;;;11.95;7.55;;;;;;;;;;5064089;28;20380;-63
2023/12/03 03:49:42;;;;;;;17.30;8.00;;;;;;;;;;5065159;28;20419;-64
2023/12/03 03:52:08;;;;;;;17.40;8.52;;;;;;;;;;5064258;28;20032;-64
2023/12/03 03:54:34;;;;;;;13.70;7.13;;;;;;;;;;5065458;28;20058;-63
2023/12/03 03:57:00;;;;;;;14.82;7.38;;;;;;;;;;5059322;28;20033;-64
2023/12/03 03:59:27;;;;;;;14.57;7.07;;;;;;;;;;5058793;28;20029;-64
2023/12/03 04:01:56;;;;;;;14.00;6.60;;;;;;;;;;5054069;28;20025;-63
2023/12/03 04:04:22;;;;;;;15.57;6.95;;;;;;;;;;5063147;28;20013;-64
2023/12/03 04:06:48;;;;;;;15.25;7.10;;;;;;;;;;5062149;28;20249;-63
2023/12/03 04:09:14;;;;;;;19.95;7.72;;;;;;;;;;5061996;28;20068;-63
2023/12/03 04:11:41;;;;;;;15.25;6.35;;;;;;;;;;5054448;28;20044;-63
2023/12/03 04:14:08;;;;;;;16.35;7.38;;;;;;;;;;5062260;28;20035;-64
2023/12/03 04:16:37;;;;;;;13.45;8.18;;;;;;;;;;5067180;28;20016;-64
2023/12/03 04:19:05;;;;;;;19.60;8.13;;;;;;;;;;5058122;28;20032;-63
2023/12/03 04:21:31;;;;;;;16.58;7.95;;;;;;;;;;5062416;28;20140;-63
2023/12/03 04:23:58;;;;;;;18.30;6.75;;;;;;;;;;5061685;28;20029;-63
2023/12/03 04:26:24;;;;;;;14.90;6.70;;;;;;;;;;5068766;28;20389;-63
2023/12/03 04:28:52;;;;;;;14.65;7.63;;;;;;;;;;5057269;28;20024;-63
2023/12/03 04:31:23;;;;;;;13.93;7.57;;;;;;;;;;5064662;28;20388;-63
2023/12/03 04:33:50;;;;;;;21.75;6.20;;;;;;;;;;5065796;28;20024;-66
2023/12/03 04:36:17;;;;;;;17.55;6.85;;;;;;;;;;5065815;28;20052;-64
2023/12/03 04:38:43;;;;;;;13.27;5.95;;;;;;;;;;5066202;28;20017;-64
2023/12/03 04:41:10;;;;;;;12.65;6.20;;;;;;;;;;5061634;28;20834;-63
2023/12/03 04:43:36;;;;;;;14.65;6.00;;;;;;;;;;5063194;28;20056;-64
2023/12/03 04:46:04;;;;;;;18.83;6.85;;;;;;;;;;5063208;28;20498;-64
2023/12/03 04:48:30;;;;;;;13.15;6.75;;;;;;;;;;5062334;28;20051;-64
2023/12/03 04:50:56;;;;;;;19.05;7.55;;;;;;;;;;5055329;28;20548;-64
2023/12/03 04:53:22;;;;;;;15.85;6.72;;;;;;;;;;5065483;28;20513;-63
2023/12/03 04:55:49;;;;;;;26.77;6.47;;;;;;;;;;5055472;28;20507;-63
2023/12/03 04:58:15;;;;;;;22.05;6.68;;;;;;;;;;5063956;28;20203;-63
2023/12/03 05:00:41;;;;;;;11.10;6.32;;;;;;;;;;5053940;28;20024;-63
2023/12/03 05:03:08;;;;;;;19.50;6.78;;;;;;;;;;5058311;28;20060;-63
2023/12/03 05:05:34;;;;;;;20.55;6.35;;;;;;;;;;5062182;28;20027;-65
2023/12/03 05:08:00;;;;;;;21.42;6.95;;;;;;;;;;5058951;28;20047;-63
2023/12/03 05:10:27;;;;;;;20.60;6.97;;;;;;;;;;5064093;28;20028;-63
2023/12/03 05:12:53;;;;;;;27.48;6.40;;;;;;;;;;5060991;28;20036;-64
2023/12/03 05:15:19;;;;;;;10.35;5.75;;;;;;;;;;5059580;28;20043;-63
2023/12/03 05:17:45;;;;;;;18.80;6.53;;;;;;;;;;5064814;28;20030;-63
2023/12/03 05:20:11;;;;;;;21.85;6.55;;;;;;;;;;5055540;28;20029;-64
2023/12/03 05:22:38;;;;;;;13.20;6.50;;;;;;;;;;5056036;28;20511;-63
2023/12/03 05:25:04;;;;;;;18.35;5.88;;;;;;;;;;5052308;28;20049;-64
2023/12/03 05:27:30;;;;;;;10.82;5.25;;;;;;;;;;5055369;28;20775;-63
2023/12/03 05:29:56;;;;;;;17.40;5.53;;;;;;;;;;5061217;28;20032;-63
2023/12/03 05:32:22;;;;;;;9.60;5.78;;;;;;;;;;5054401;28;20342;-64
2023/12/03 05:34:49;;;;;;;9.18;5.15;;;;;;;;;;5078342;28;20029;-63
2023/12/03 05:37:15;;;;;;;10.10;4.72;;;;;;;;;;5058476;28;20715;-64
2023/12/03 05:39:41;;;;;;;11.00;5.13;;;;;;;;;;5060268;28;20024;-63
2023/12/03 05:42:08;;;;;;;15.10;7.00;;;;;;;;;;5060648;28;20304;-64
2023/12/03 05:44:34;;;;;;;15.65;6.18;;;;;;;;;;5060673;28;20036;-63
2023/12/03 05:47:02;;;;;;;20.02;6.47;;;;;;;;;;5051227;28;20183;-65
2023/12/03 05:49:28;;;;;;;12.93;5.20;;;;;;;;;;5069661;28;20479;-66
2023/12/03 05:51:55;;;;;;;11.35;6.13;;;;;;;;;;5056204;28;20035;-63
2023/12/03 05:54:21;;;;;;;12.85;6.03;;;;;;;;;;5057737;28;20020;-64
2023/12/03 05:56:47;;;;;;;13.32;6.30;;;;;;;;;;5064715;28;20059;-63
2023/12/03 05:59:13;;;;;;;11.57;6.50;;;;;;;;;;5065494;28;20120;-63
2023/12/03 06:01:40;;;;;;;20.17;7.25;;;;;;;;;;5061112;28;20031;-63
2023/12/03 06:04:06;;;;;;;21.80;7.90;;;;;;;;;;5060474;28;20024;-63
2023/12/03 06:06:36;;;;;;;12.48;6.13;;;;;;;;;;5066027;28;20024;-63
2023/12/03 06:09:05;;;;;;;17.88;6.38;;;;;;;;;;5061877;28;20110;-63
2023/12/03 06:11:35;;;;;;;18.23;6.20;;;;;;;;;;5056363;28;20056;-63
2023/12/03 06:14:05;;;;;;;23.90;7.43;;;;;;;;;;5061228;28;20077;-63
2023/12/03 06:16:31;;;;;;;15.38;6.45;;;;;;;;;;5058134;28;20023;-63
2023/12/03 06:18:57;;;;;;;22.60;6.20;;;;;;;;;;5061758;28;20024;-64
2023/12/03 06:21:24;;;;;;;14.70;6.20;;;;;;;;;;5062274;28;20494;-64
2023/12/03 06:23:50;;;;;;;35.88;7.10;;;;;;;;;;5067135;28;20028;-64
2023/12/03 06:26:16;;;;;;;12.23;5.60;;;;;;;;;;5063554;28;20035;-64
2023/12/03 06:28:42;;;;;;;15.80;6.22;;;;;;;;;;5083764;28;20476;-64
2023/12/03 06:31:08;;;;;;;25.20;6.03;;;;;;;;;;5060832;28;20378;-63
2023/12/03 06:33:35;;;;;;;13.23;5.88;;;;;;;;;;5066911;28;20410;-64
2023/12/03 06:36:01;;;;;;;13.43;6.35;;;;;;;;;;5060558;28;20071;-64
2023/12/03 06:38:27;;;;;;;10.75;5.90;;;;;;;;;;5054445;28;20024;-64
2023/12/03 06:40:53;;;;;;;11.80;5.93;;;;;;;;;;5057423;28;20063;-64
2023/12/03 06:43:20;;;;;;;16.20;6.13;;;;;;;;;;5058791;28;20031;-64
2023/12/03 06:45:46;;;;;;;16.17;6.53;;;;;;;;;;5058035;28;20052;-64
2023/12/03 06:48:12;;;;;;;10.48;5.72;;;;;;;;;;5062222;28;20092;-64
2023/12/03 06:50:38;;;;;;;18.67;6.90;;;;;;;;;;5073070;28;20132;-64
2023/12/03 06:53:04;;;;;;;15.43;7.97;;;;;;;;;;5060167;28;20027;-64
2023/12/03 06:55:30;;;;;;;23.13;7.60;;;;;;;;;;5082206;28;20028;-64
2023/12/03 06:57:56;;;;;;;10.13;5.63;;;;;;;;;;5062239;28;20024;-64
2023/12/03 07:00:26;;;;;;;16.00;6.60;;;;;;;;;;5059340;28;20389;-64
2023/12/03 07:02:52;;;;;;;19.95;5.72;;;;;;;;;;5058921;28;20025;-64
2023/12/03 07:05:18;;;;;;;14.23;6.65;;;;;;;;;;5064624;28;20549;-64
2023/12/03 07:07:48;;;;;;;13.05;6.47;;;;;;;;;;5068421;28;20028;-64
2023/12/03 07:10:15;;;;;;;17.40;7.18;;;;;;;;;;5058454;28;20028;-63
2023/12/03 07:12:41;;;;;;;11.52;6.85;;;;;;;;;;5059231;28;20024;-63
2023/12/03 07:15:07;;;;;;;10.63;5.80;;;;;;;;;;5053354;28;20424;-64
2023/12/03 07:17:33;;;;;;;14.07;5.63;;;;;;;;;;5056445;28;20229;-63
2023/12/03 07:20:00;;;;;;;9.70;5.82;;;;;;;;;;5056948;28;20027;-63
2023/12/03 07:22:26;;;;;;;17.60;6.40;;;;;;;;;;5056242;28;20145;-63
2023/12/03 07:24:53;;;;;;;9.50;5.75;;;;;;;;;;5055784;28;20075;-63
2023/12/03 07:27:19;;;;;;;13.15;6.15;;;;;;;;;;5064827;28;20235;-63
2023/12/03 07:29:45;;;;;;;8.93;5.88;;;;;;;;;;5058858;28;20384;-63
2023/12/03 07:32:11;;;;;;;10.88;6.45;;;;;;;;;;5062948;28;20108;-63
2023/12/03 07:34:38;;;;;;;12.40;5.65;;;;;;;;;;5058309;28;20400;-64
2023/12/03 07:37:04;;;;;;;8.93;5.20;;;;;;;;;;5057942;28;20048;-63
2023/12/03 07:39:30;;;;;;;10.65;6.15;;;;;;;;;;5055393;28;20025;-64
2023/12/03 07:41:56;;;;;;;9.50;6.05;;;;;;;;;;5058706;28;20048;-63
2023/12/03 07:44:23;;;;;;;7.65;4.97;;;;;;;;;;5074254;28;20050;-63
2023/12/03 07:46:49;;;;;;;11.25;5.13;;;;;;;;;;5058144;28;20182;-63
2023/12/03 07:49:16;;;;;;;9.88;5.18;;;;;;;;;;5054720;28;20033;-63
2023/12/03 07:51:42;;;;;;;10.52;6.15;;;;;;;;;;5059361;28;20025;-66
2023/12/03 07:54:08;;;;;;;8.93;4.90;;;;;;;;;;5056420;28;20036;-63
2023/12/03 07:56:38;;;;;;;9.30;6.07;;;;;;;;;;5054717;28;20031;-63
2023/12/03 07:59:04;;;;;;;9.05;5.30;;;;;;;;;;5051575;28;20024;-64
2023/12/03 08:01:30;;;;;;;12.07;6.13;;;;;;;;;;5059346;28;20020;-64
2023/12/03 08:03:57;;;;;;;13.65;6.07;;;;;;;;;;5057228;28;20040;-66
2023/12/03 08:06:23;;;;;;;10.45;5.55;;;;;;;;;;5074051;28;20270;-64
2023/12/03 08:08:50;;;;;;;10.27;6.05;;;;;;;;;;5057258;28;20519;-63
2023/12/03 08:11:16;;;;;;;15.77;6.68;;;;;;;;;;5073825;28;20039;-63
2023/12/03 08:13:42;;;;;;;13.27;6.47;;;;;;;;;;5054442;28;20032;-63
2023/12/03 08:16:09;;;;;;;15.57;6.43;;;;;;;;;;5057678;28;20457;-64
2023/12/03 08:18:35;;;;;;;11.13;6.45;;;;;;;;;;5059392;28;20480;-63
2023/12/03 08:21:02;;;;;;;15.07;7.35;;;;;;;;;;5060699;28;20039;-63
2023/12/03 08:23:28;;;;;;;15.00;6.60;;;;;;;;;;5079961;28;20041;-63
2023/12/03 08:25:55;;;;;;;12.30;5.47;;;;;;;;;;5065492;28;20424;-63
2023/12/03 08:28:21;;;;;;;11.77;6.75;;;;;;;;;;5057797;28;20546;-63
2023/12/03 08:30:48;;;;;;;13.43;7.55;;;;;;;;;;5064995;28;20028;-63
2023/12/03 08:33:15;;;;;;;12.63;6.88;;;;;;;;;;5057107;28;20485;-64
2023/12/03 08:35:41;;;;;;;9.82;5.80;;;;;;;;;;5061371;28;20380;-64
2023/12/03 08:38:08;;;;;;;13.82;6.63;;;;;;;;;;5062113;28;20134;-64
2023/12/03 08:40:34;;;;;;;12.90;6.47;;;;;;;;;;5060948;28;20437;-63
2023/12/03 08:43:01;;;;;;;16.52;7.68;;;;;;;;;;5059484;28;20038;-63
2023/12/03 08:45:27;;;;;;;14.20;6.32;;;;;;;;;;5056531;28;20049;-64
2023/12/03 08:47:54;;;;;;;15.55;7.43;;;;;;;;;;5058328;28;20390;-64
2023/12/03 08:50:20;;;;;;;13.63;7.50;;;;;;;;;;5059583;28;20039;-64
2023/12/03 08:52:46;;;;;;;13.63;6.45;;;;;;;;;;5070352;28;20468;-64
2023/12/03 08:55:12;;;;;;;15.15;7.10;;;;;;;;;;5058964;28;20489;-64
2023/12/03 08:57:39;;;;;;;11.75;7.30;;;;;;;;;;5059851;28;20071;-63
2023/12/03 09:00:08;;;;;;;12.65;6.35;;;;;;;;;;5062267;28;20034;-64
2023/12/03 09:02:34;;;;;;;15.85;7.47;;;;;;;;;;5052983;28;20508;-64
2023/12/03 09:05:00;;;;;;;17.25;7.63;;;;;;;;;;5052563;28;20028;-64
2023/12/03 09:07:30;;;;;;;20.48;10.48;;;;;;;;;;5060445;28;20037;-64
2023/12/03 09:09:57;;;;;;;17.63;7.95;;;;;;;;;;5058727;28;20072;-64
2023/12/03 09:12:23;;;;;;;19.58;8.50;;;;;;;;;;5062936;28;20354;-64
2023/12/03 09:14:49;;;;;;;19.10;9.32;;;;;;;;;;5061367;28;20028;-64
2023/12/03 09:17:15;;;;;;;21.63;9.18;;;;;;;;;;5058116;28;20024;-65
2023/12/03 09:19:41;;;;;;;21.27;8.90;;;;;;;;;;5064466;28;20020;-65
2023/12/03 09:22:08;;;;;;;19.05;8.00;;;;;;;;;;5064351;28;20499;-64
2023/12/03 09:24:34;;;;;;;22.73;10.85;;;;;;;;;;5062134;28;20045;-64
2023/12/03 09:27:00;;;;;;;20.38;9.63;;;;;;;;;;5066030;28;20028;-64
2023/12/03 09:29:27;;;;;;;24.80;9.77;;;;;;;;;;5060405;28;20094;-65
2023/12/03 09:31:53;;;;;;;22.27;9.68;;;;;;;;;;5061753;28;20388;-64
2023/12/03 09:34:19;;;;;;;23.05;8.55;;;;;;;;;;5056573;28;20044;-64
2023/12/03 09:36:45;;;;;;;22.27;8.18;;;;;;;;;;5061340;28;20017;-64
2023/12/03 09:39:12;;;;;;;17.75;8.93;;;;;;;;;;5057037;28;20103;-65
2023/12/03 09:41:57;;;;;;;22.27;9.20;;;;;;;;;;5062653;28;20410;-64
2023/12/03 09:44:33;;;;;;;25.50;9.43;;;;;;;;;;5059126;28;20185;-65
2023/12/03 09:47:00;;;;;;;19.70;9.60;;;;;;;;;;5057110;28;20143;-64
2023/12/03 09:49:28;;;;;;;25.08;8.50;;;;;;;;;;5056636;28;20036;-64
2023/12/03 09:51:57;;;;;;;24.52;9.38;;;;;;;;;;5064428;28;20028;-64
2023/12/03 09:54:23;;;;;;;20.13;8.65;;;;;;;;;;5057352;28;20056;-64
2023/12/03 09:56:50;;;;;;;21.70;8.63;;;;;;;;;;5050779;28;20036;-64
2023/12/03 09:59:16;;;;;;;17.33;7.60;;;;;;;;;;5057478;28;20480;-64
2023/12/03 10:01:43;;;;;;;20.17;7.88;;;;;;;;;;5058265;28;20024;-64
2023/12/03 10:04:09;;;;;;;19.38;7.28;;;;;;;;;;5058099;28;20110;-65
2023/12/03 10:06:40;;;;;;;20.40;8.23;;;;;;;;;;5063683;28;20104;-64
2023/12/03 10:09:07;;;;;;;25.65;7.95;;;;;;;;;;5059535;28;20033;-64
2023/12/03 10:11:38;;;;;;;17.52;7.03;;;;;;;;;;5057725;28;20028;-64
2023/12/03 10:14:06;;;;;;;19.80;7.68;;;;;;;;;;5042210;28;20030;-64
2023/12/03 10:16:33;;;;;;;18.50;6.95;;;;;;;;;;5035936;28;20068;-64
2023/12/03 10:19:00;;;;;;;18.83;8.68;;;;;;;;;;5050037;28;20024;-64
2023/12/03 10:21:27;;;;;;;19.73;7.68;;;;;;;;;;5063937;28;20361;-65
2023/12/03 10:23:58;;;;;;;20.95;7.53;;;;;;;;;;5052773;28;20039;-64
2023/12/03 10:26:24;;;;;;;20.95;8.18;;;;;;;;;;5053037;28;20032;-65
2023/12/03 10:28:50;;;;;;;17.23;7.90;;;;;;;;;;5056255;28;20040;-65
2023/12/03 10:31:18;;;;;;;16.85;8.15;;;;;;;;;;5055594;28;20095;-64
2023/12/03 10:33:44;;;;;;;16.27;7.32;;;;;;;;;;5054031;28;20369;-64
2023/12/03 10:36:11;;;;;;;16.27;7.95;;;;;;;;;;5055654;28;20090;-64
2023/12/03 10:38:38;;;;;;;14.18;7.78;;;;;;;;;;5053408;28;20504;-64
2023/12/03 10:41:07;;;;;;;20.33;7.72;;;;;;;;;;5054842;28;20442;-65
2023/12/03 10:43:35;;;;;;;11.30;5.93;;;;;;;;;;5053709;28;20433;-66
2023/12/03 10:46:04;;;;;;;17.42;7.63;;;;;;;;;;5056425;28;20748;-65
2023/12/03 10:48:31;;;;;;;14.07;7.22;;;;;;;;;;5049900;28;20519;-65
2023/12/03 10:51:04;;;;;;;16.55;7.10;;;;;;;;;;5054166;28;20032;-65
2023/12/03 10:53:31;;;;;;;16.70;7.05;;;;;;;;;;5064270;28;20043;-65
2023/12/03 10:55:58;;;;;;;13.10;9.02;;;;;;;;;;5057185;28;20103;-65
2023/12/03 10:58:26;;;;;;;19.58;8.57;;;;;;;;;;5053868;28;20036;-66
2023/12/03 11:00:59;;;;;;;18.13;7.90;;;;;;;;;;5057201;28;20118;-64
2023/12/03 11:03:46;;;;;;;12.38;6.53;;;;;;;;;;5054744;28;20060;-65
2023/12/03 11:06:13;;;;;;;13.85;6.32;;;;;;;;;;5053170;28;20028;-64
2023/12/03 11:08:40;;;;;;;14.38;7.35;;;;;;;;;;5058338;28;20024;-64
2023/12/03 11:11:11;;;;;;;13.55;6.53;;;;;;;;;;5054036;28;20036;-64
2023/12/03 11:13:37;;;;;;;12.20;5.53;;;;;;;;;;5052656;28;20413;-64
2023/12/03 11:16:05;;;;;;;11.10;5.68;;;;;;;;;;5061771;28;20032;-64
2023/12/03 11:18:32;;;;;;;13.20;6.45;;;;;;;;;;5055832;28;20451;-65
2023/12/03 11:21:04;;;;;;;8.07;4.80;;;;;;;;;;5060759;28;20028;-64
2023/12/03 11:23:38;;;;;;;8.40;5.57;;;;;;;;;;5067499;28;20025;-64
2023/12/03 11:26:07;;;;;;;7.90;5.72;;;;;;;;;;5057182;28;20586;-64
2023/12/03 11:28:34;;;;;;;9.32;5.32;;;;;;;;;;5052025;28;20031;-65
2023/12/03 11:31:00;;;;;;;11.52;5.88;;;;;;;;;;5047814;28;20033;-64
2023/12/03 11:33:27;;;;;;;10.77;5.90;;;;;;;;;;5051432;28;20398;-64
2023/12/03 11:35:54;;;;;;;11.13;5.70;;;;;;;;;;5050998;28;20029;-64
2023/12/03 11:38:21;;;;;;;15.02;7.00;;;;;;;;;;5061876;28;20067;-67
2023/12/03 11:40:47;;;;;;;13.73;6.53;;;;;;;;;;5048955;28;20077;-65
2023/12/03 11:43:23;;;;;;;11.38;5.85;;;;;;;;;;5060484;28;20040;-65
2023/12/03 11:45:51;;;;;;;10.45;5.55;;;;;;;;;;5057058;28;20056;-66
2023/12/03 11:48:17;;;;;;;7.97;4.78;;;;;;;;;;5052148;28;20035;-66
2023/12/03 11:50:44;;;;;;;7.68;4.95;;;;;;;;;;5057422;28;20024;-65
2023/12/03 11:53:13;;;;;;;9.65;5.25;;;;;;;;;;5060598;28;20032;-63
2023/12/03 11:55:41;;;;;;;8.15;5.72;;;;;;;;;;5055002;28;20064;-66
2023/12/03 11:58:08;;;;;;;10.07;6.13;;;;;;;;;;5055814;28;20024;-66
2023/12/03 12:00:35;;;;;;;9.00;4.88;;;;;;;;;;5062865;28;20366;-65
2023/12/03 12:03:05;;;;;;;7.38;4.50;;;;;;;;;;5056588;28;20223;-65
2023/12/03 12:05:31;;;;;;;8.98;4.82;;;;;;;;;;5068270;28;20032;-66
2023/12/03 12:07:58;;;;;;;7.53;4.65;;;;;;;;;;5055088;28;20464;-65
2023/12/03 12:10:24;;;;;;;12.07;5.13;;;;;;;;;;5058700;28;20040;-65
2023/12/03 12:12:50;;;;;;;10.38;5.65;;;;;;;;;;5057780;28;20056;-65
2023/12/03 12:15:17;;;;;;;8.45;5.88;;;;;;;;;;5070703;28;20024;-65
2023/12/03 12:17:43;;;;;;;12.05;6.40;;;;;;;;;;5046399;28;20886;-65
2023/12/03 12:20:09;;;;;;;9.32;6.13;;;;;;;;;;5050722;28;20532;-65
2023/12/03 12:22:35;;;;;;;16.48;9.48;;;;;;;;;;5055152;28;20550;-68
2023/12/03 12:25:02;;;;;;;11.57;7.00;;;;;;;;;;5055683;28;20028;-65
2023/12/03 12:27:28;;;;;;;17.85;11.02;;;;;;;;;;5062855;28;20393;-64
2023/12/03 12:29:55;;;;;;;12.38;7.50;;;;;;;;;;5054709;28;20078;-64
2023/12/03 12:32:21;;;;;;;7.82;5.25;;;;;;;;;;5048472;28;20397;-68
2023/12/03 12:34:47;;;;;;;6.90;4.80;;;;;;;;;;5072662;28;20389;-65
2023/12/03 12:37:13;;;;;;;8.05;4.55;;;;;;;;;;5064578;28;20020;-65
2023/12/03 12:39:40;;;;;;;6.53;4.00;;;;;;;;;;5058929;28;20169;-65
2023/12/03 12:42:06;;;;;;;7.70;4.53;;;;;;;;;;5053102;28;20558;-65
2023/12/03 12:44:42;;;;;;;6.15;4.13;;;;;;;;;;5058179;28;20102;-65
2023/12/03 12:47:09;;;;;;;6.28;4.32;;;;;;;;;;5061800;28;20056;-65
2023/12/03 12:49:35;;;;;;;7.72;5.30;;;;;;;;;;5061165;28;20029;-65
2023/12/03 12:52:12;;;;;;;9.10;5.90;;;;;;;;;;5057439;28;20536;-66
2023/12/03 12:54:45;;;;;;;7.95;4.72;;;;;;;;;;5073282;28;20613;-67
2023/12/03 12:57:13;;;;;;;5.68;3.85;;;;;;;;;;5059450;28;20037;-65
2023/12/03 12:59:39;;;;;;;6.07;3.65;;;;;;;;;;5057897;28;20028;-65
2023/12/03 13:02:07;;;;;;;7.05;3.88;;;;;;;;;;5070858;28;20052;-65
2023/12/03 13:04:33;;;;;;;6.78;3.80;;;;;;;;;;5052534;28;20037;-65
2023/12/03 13:07:02;;;;;;;5.18;4.10;;;;;;;;;;5056417;28;20431;-65
2023/12/03 13:09:28;;;;;;;4.82;3.20;;;;;;;;;;5055575;28;20032;-65
2023/12/03 13:11:55;;;;;;;5.72;4.05;;;;;;;;;;5063572;28;20532;-65
2023/12/03 13:14:21;;;;;;;5.90;3.72;;;;;;;;;;5063710;28;20029;-64
2023/12/03 13:16:48;;;;;;;7.30;5.00;;;;;;;;;;5061210;28;20484;-64
2023/12/03 13:19:16;;;;;;;5.97;3.95;;;;;;;;;;5068214;28;20032;-64
2023/12/03 13:21:43;;;;;;;7.13;4.55;;;;;;;;;;5057848;28;20063;-65
2023/12/03 13:24:09;;;;;;;6.65;4.63;;;;;;;;;;5061896;28;20025;-65
2023/12/03 13:26:36;;;;;;;6.03;4.35;;;;;;;;;;5054996;28;20036;-65
2023/12/03 13:29:02;;;;;;;6.32;4.03;;;;;;;;;;5060274;28;20058;-66
2023/12/03 13:31:29;;;;;;;5.32;3.97;;;;;;;;;;5057960;28;20040;-64
2023/12/03 13:33:55;;;;;;;6.43;4.13;;;;;;;;;;5060914;28;20039;-64
2023/12/03 13:36:22;;;;;;;6.95;5.20;;;;;;;;;;5076082;28;20030;-64
2023/12/03 13:38:48;;;;;;;6.68;3.95;;;;;;;;;;5056306;28;21008;-65
2023/12/03 13:41:15;;;;;;;5.43;4.13;;;;;;;;;;5055799;28;20029;-64
2023/12/03 13:43:41;;;;;;;10.75;5.80;;;;;;;;;;5056866;28;20573;-64
2023/12/03 13:46:08;;;;;;;26.08;12.82;;;;;;;;;;5057120;28;20114;-64
2023/12/03 13:48:35;;;;;;;12.07;8.75;;;;;;;;;;5057297;28;20465;-64
2023/12/03 13:51:01;;;;;;;12.32;8.77;;;;;;;;;;5052919;28;20091;-64
2023/12/03 13:53:28;;;;;;;13.57;8.75;;;;;;;;;;5061319;28;20111;-64
2023/12/03 13:55:54;;;;;;;14.52;10.02;;;;;;;;;;5053590;28;20241;-64
2023/12/03 13:58:21;;;;;;;11.57;6.85;;;;;;;;;;5055349;28;20480;-64
2023/12/03 14:00:47;;;;;;;9.63;7.10;;;;;;;;;;5057623;28;20274;-64
2023/12/03 14:03:14;;;;;;;12.05;7.15;;;;;;;;;;5059155;28;20031;-66
2023/12/03 14:05:40;;;;;;;13.77;7.78;;;;;;;;;;5057052;28;20033;-64
2023/12/03 14:08:06;;;;;;;12.68;7.47;;;;;;;;;;5053384;28;20553;-64
2023/12/03 14:10:33;;;;;;;11.68;7.88;;;;;;;;;;5060891;28;20441;-64
2023/12/03 14:12:59;;;;;;;14.00;9.32;;;;;;;;;;5061575;28;22315;-64
2023/12/03 14:15:26;;;;;;;8.80;7.18;;;;;;;;;;5052206;28;20033;-63
2023/12/03 14:17:52;;;;;;;9.77;7.00;;;;;;;;;;5059275;28;20046;-64
2023/12/03 14:20:18;;;;;;;9.68;7.65;;;;;;;;;;5059847;28;20055;-64
2023/12/03 14:22:45;;;;;;;7.97;5.78;;;;;;;;;;5061296;28;20036;-64
2023/12/03 14:25:11;;;;;;;9.63;6.63;;;;;;;;;;5071247;28;20051;-65